createdAt,value
2022-11-02T00:01:49.175Z,13.67
2022-11-02T00:04:17.515Z,15.40
2022-11-02T00:06:45.893Z,13.63
2022-11-02T00:09:14.155Z,13.20
2022-11-02T00:11:42.401Z,14.70
2022-11-02T00:14:12.226Z,15.87
2022-11-02T00:16:41.660Z,10.47
2022-11-02T00:19:10.676Z,16.77
2022-11-02T00:21:39.795Z,11.40
2022-11-02T00:24:09.935Z,17.47
2022-11-02T00:26:39.521Z,15.47
2022-11-02T00:29:08.803Z,11.50
2022-11-02T00:31:38.448Z,12.23
2022-11-02T00:34:25.452Z,12.23
2022-11-02T00:36:55.722Z,10.13
2022-11-02T00:39:24.015Z,15.83
2022-11-02T00:41:52.805Z,11.10
2022-11-02T00:44:21.051Z,9.73
2022-11-02T00:46:50.611Z,10.73
2022-11-02T00:49:18.878Z,14.17
2022-11-02T00:51:47.382Z,16.87
2022-11-02T00:54:15.764Z,13.33
2022-11-02T00:56:46.946Z,15.07
2022-11-02T00:59:15.467Z,9.33
2022-11-02T01:01:47.415Z,11.00
2022-11-02T01:04:18.659Z,12.00
2022-11-02T01:06:47.461Z,11.80
2022-11-02T01:09:16.587Z,12.47
2022-11-02T01:11:46.184Z,14.77
2022-11-02T01:14:38.911Z,14.90
2022-11-02T01:17:07.963Z,13.87
2022-11-02T01:20:02.520Z,16.80
2022-11-02T01:22:31.838Z,12.47
2022-11-02T01:25:00.194Z,12.27
2022-11-02T01:27:28.622Z,14.33
2022-11-02T01:29:57.177Z,16.03
2022-11-02T01:32:25.656Z,16.10
2022-11-02T01:34:54.288Z,15.73
2022-11-02T01:37:24.108Z,12.70
2022-11-02T01:39:52.344Z,15.57
2022-11-02T01:42:22.469Z,15.23
2022-11-02T01:44:57.285Z,12.70
2022-11-02T01:47:30.399Z,15.00
2022-11-02T01:50:03.617Z,14.90
2022-11-02T01:52:39.741Z,10.83
2022-11-02T01:55:13.479Z,9.50
2022-11-02T01:57:45.010Z,11.87
2022-11-02T02:00:16.478Z,12.27
2022-11-02T02:02:49.654Z,12.00
2022-11-02T02:05:19.806Z,13.80
2022-11-02T02:07:50.923Z,8.60
2022-11-02T02:10:20.160Z,11.20
2022-11-02T02:12:49.309Z,11.00
2022-11-02T02:16:07.339Z,13.13
2022-11-02T02:18:42.882Z,10.93
2022-11-02T02:21:25.060Z,17.37
2022-11-02T02:24:21.692Z,11.40
2022-11-02T02:27:06.165Z,12.90
2022-11-02T02:29:45.910Z,11.47
2022-11-02T02:32:19.970Z,12.83
2022-11-02T02:34:53.900Z,13.97
2022-11-02T02:37:27.954Z,14.47
2022-11-02T02:40:02.245Z,11.07
2022-11-02T02:42:35.773Z,12.70
2022-11-02T02:45:13.263Z,15.70
2022-11-02T02:47:48.544Z,14.60
2022-11-02T02:50:21.128Z,10.53
2022-11-02T02:52:51.822Z,13.70
2022-11-02T02:55:24.259Z,16.80
2022-11-02T02:57:54.912Z,8.97
2022-11-02T03:00:25.327Z,10.47
2022-11-02T03:03:02.122Z,9.87
2022-11-02T03:05:33.938Z,12.20
2022-11-02T03:08:06.353Z,13.37
2022-11-02T03:10:42.243Z,13.60
2022-11-02T03:13:29.876Z,13.10
2022-11-02T03:16:04.447Z,8.43
2022-11-02T03:18:43.483Z,12.13
2022-11-02T03:21:26.671Z,14.10
2022-11-02T03:23:59.695Z,10.33
2022-11-02T03:26:33.878Z,14.20
2022-11-02T03:29:07.289Z,11.73
2022-11-02T03:31:39.655Z,10.60
2022-11-02T03:34:18.460Z,9.90
2022-11-02T03:36:50.288Z,13.20
2022-11-02T03:39:23.247Z,19.33
2022-11-02T03:41:54.304Z,15.27
2022-11-02T03:44:26.260Z,11.97
2022-11-02T03:47:00.225Z,13.33
2022-11-02T03:49:30.918Z,14.53
2022-11-02T03:52:05.195Z,12.90
2022-11-02T03:54:42.461Z,12.93
2022-11-02T03:57:31.115Z,14.47
2022-11-02T04:00:08.504Z,13.40
2022-11-02T04:02:39.854Z,14.27
2022-11-02T04:05:08.898Z,9.70
2022-11-02T04:07:56.786Z,15.30
2022-11-02T04:10:27.807Z,9.37
2022-11-02T04:13:13.322Z,14.43
2022-11-02T04:15:41.751Z,13.00
2022-11-02T04:18:28.853Z,8.77
2022-11-02T04:20:57.124Z,9.13
2022-11-02T04:23:42.962Z,13.10
2022-11-02T04:26:11.395Z,10.00
2022-11-02T04:28:39.609Z,13.23
2022-11-02T04:31:07.844Z,18.73
2022-11-02T04:33:36.522Z,17.17
2022-11-02T04:36:09.652Z,11.80
2022-11-02T04:38:42.558Z,17.63
2022-11-02T04:41:29.687Z,11.93
2022-11-02T04:43:58.020Z,17.00
2022-11-02T04:46:28.144Z,10.93
2022-11-02T04:48:57.984Z,14.97
2022-11-02T04:51:30.433Z,11.47
2022-11-02T04:53:59.787Z,13.60
2022-11-02T04:56:31.840Z,11.93
2022-11-02T04:59:01.506Z,10.80
2022-11-02T05:01:31.212Z,12.27
2022-11-02T05:04:01.288Z,10.83
2022-11-02T05:06:29.595Z,12.70
2022-11-02T05:08:57.896Z,12.67
2022-11-02T05:11:26.509Z,11.97
2022-11-02T05:13:55.210Z,14.90
2022-11-02T05:16:23.465Z,11.73
2022-11-02T05:18:51.691Z,10.67
2022-11-02T05:21:21.565Z,15.60
2022-11-02T05:23:49.890Z,12.93
2022-11-02T05:26:18.120Z,12.03
2022-11-02T05:28:46.859Z,15.33
2022-11-02T05:31:15.312Z,16.00
2022-11-02T05:33:43.542Z,11.23
2022-11-02T05:36:17.339Z,20.53
2022-11-02T05:38:47.008Z,11.33
2022-11-02T05:41:15.228Z,11.83
2022-11-02T05:43:43.489Z,13.00
2022-11-02T05:46:14.726Z,13.97
2022-11-02T05:48:43.311Z,9.40
2022-11-02T05:51:11.962Z,17.17
2022-11-02T05:53:40.550Z,10.10
2022-11-02T05:56:13.531Z,12.60
2022-11-02T05:58:42.191Z,10.57
2022-11-02T06:01:19.522Z,8.03
2022-11-02T06:03:53.134Z,11.90
2022-11-02T06:06:22.050Z,13.57
2022-11-02T06:08:50.268Z,12.00
2022-11-02T06:11:20.167Z,10.57
2022-11-02T06:13:51.023Z,17.93
2022-11-02T06:16:22.944Z,12.37
2022-11-02T06:18:54.996Z,13.07
2022-11-02T06:21:23.191Z,10.40
2022-11-02T06:23:51.903Z,16.23
2022-11-02T06:26:22.125Z,31.43
2022-11-02T06:28:50.319Z,24.37
2022-11-02T06:31:18.543Z,20.40
2022-11-02T06:33:47.097Z,16.63
2022-11-02T06:36:15.455Z,19.20
2022-11-02T06:38:46.435Z,20.10
2022-11-02T06:41:15.326Z,18.80
2022-11-02T06:43:45.050Z,16.93
2022-11-02T06:46:13.383Z,18.27
2022-11-02T06:48:41.701Z,19.93
2022-11-02T06:51:09.945Z,18.23
2022-11-02T06:53:38.222Z,18.80
2022-11-02T06:56:07.521Z,19.57
2022-11-02T06:59:02.940Z,23.50
2022-11-02T07:01:32.845Z,20.07
2022-11-02T07:04:01.573Z,18.80
2022-11-02T07:06:29.893Z,19.97
2022-11-02T07:08:58.200Z,19.73
2022-11-02T07:11:26.410Z,18.50
2022-11-02T07:13:54.787Z,26.53
2022-11-02T07:16:25.280Z,23.50
2022-11-02T07:18:53.489Z,20.67
2022-11-02T07:21:22.986Z,18.90
2022-11-02T07:23:52.341Z,30.77
2022-11-02T07:26:33.035Z,31.17
2022-11-02T07:29:27.559Z,21.53
2022-11-02T07:31:57.328Z,23.73
2022-11-02T07:34:25.554Z,16.10
2022-11-02T07:36:54.299Z,17.73
2022-11-02T07:39:22.559Z,20.17
2022-11-02T07:41:52.065Z,16.93
2022-11-02T07:44:20.509Z,15.07
2022-11-02T07:46:48.870Z,18.83
2022-11-02T07:49:21.499Z,23.37
2022-11-02T07:51:50.222Z,15.27
2022-11-02T07:54:18.488Z,15.90
2022-11-02T07:56:46.948Z,17.63
2022-11-02T07:59:15.298Z,17.00
2022-11-02T08:01:43.689Z,20.73
2022-11-02T08:04:12.157Z,17.80
2022-11-02T08:06:41.861Z,14.70
2022-11-02T08:09:10.372Z,19.53
2022-11-02T08:11:38.660Z,19.43
2022-11-02T08:14:08.629Z,18.60
2022-11-02T08:16:36.908Z,22.07
2022-11-02T08:19:05.167Z,17.70
2022-11-02T08:21:46.885Z,16.40
2022-11-02T08:24:15.152Z,18.23
2022-11-02T08:26:45.377Z,18.60
2022-11-02T08:29:15.184Z,19.10
2022-11-02T08:31:43.420Z,17.33
2022-11-02T08:34:23.971Z,21.77
2022-11-02T08:37:22.781Z,16.40
2022-11-02T08:39:51.414Z,19.87
2022-11-02T08:42:19.600Z,16.30
2022-11-02T08:45:02.949Z,18.27
2022-11-02T08:47:31.252Z,17.67
2022-11-02T08:50:12.350Z,18.10
2022-11-02T08:52:42.050Z,19.37
2022-11-02T08:55:10.785Z,19.83
2022-11-02T08:57:46.640Z,19.90
2022-11-02T09:00:16.067Z,14.93
2022-11-02T09:03:10.009Z,20.60
2022-11-02T09:05:39.707Z,20.00
2022-11-02T09:08:13.251Z,17.43
2022-11-02T09:10:42.225Z,20.03
2022-11-02T09:13:16.389Z,16.97
2022-11-02T09:15:44.612Z,21.20
2022-11-02T09:18:12.900Z,19.67
2022-11-02T09:20:41.194Z,15.43
2022-11-02T09:23:10.852Z,22.00
2022-11-02T09:25:39.141Z,17.37
2022-11-02T09:28:09.117Z,24.50
2022-11-02T09:30:37.732Z,20.57
2022-11-02T09:33:08.109Z,19.47
2022-11-02T09:35:38.956Z,19.63
2022-11-02T09:38:08.134Z,16.90
2022-11-02T09:40:40.507Z,14.53
2022-11-02T09:43:19.272Z,19.00
2022-11-02T09:45:59.176Z,22.13
2022-11-02T09:48:31.710Z,15.20
2022-11-02T09:51:06.708Z,19.07
2022-11-02T09:54:02.599Z,19.93
2022-11-02T09:56:33.132Z,24.07
2022-11-02T09:59:05.191Z,22.63
2022-11-02T10:01:45.147Z,16.77
2022-11-02T10:04:43.212Z,17.77
2022-11-02T10:07:20.141Z,19.67
2022-11-02T10:10:00.839Z,15.70
2022-11-02T10:12:39.752Z,24.87
2022-11-02T10:15:16.823Z,16.90
2022-11-02T10:17:47.828Z,15.60
2022-11-02T10:20:26.159Z,27.00
2022-11-02T10:22:58.651Z,15.43
2022-11-02T10:25:27.479Z,17.43
2022-11-02T10:28:04.482Z,18.20
2022-11-02T10:30:33.777Z,18.40
2022-11-02T10:33:02.195Z,18.07
2022-11-02T10:35:57.685Z,17.60
2022-11-02T10:38:39.237Z,14.60
2022-11-02T10:41:20.692Z,20.60
2022-11-02T10:44:09.160Z,43.90
2022-11-02T10:46:50.817Z,27.57
2022-11-02T10:49:32.843Z,28.47
2022-11-02T10:52:01.405Z,14.07
2022-11-02T10:54:33.426Z,12.47
2022-11-02T10:57:12.825Z,13.43
2022-11-02T10:59:42.512Z,13.80
2022-11-02T11:02:14.606Z,11.87
2022-11-02T11:04:44.053Z,14.63
2022-11-02T11:07:17.722Z,20.67
2022-11-02T11:09:52.940Z,18.83
2022-11-02T11:12:25.697Z,14.60
2022-11-02T11:21:01.805Z,10.27
2022-11-02T11:23:30.259Z,9.27
2022-11-02T11:26:28.757Z,9.40
2022-11-02T11:28:58.216Z,20.10
2022-11-02T11:31:28.094Z,11.60
2022-11-02T11:33:58.332Z,15.03
2022-11-02T11:36:30.638Z,10.57
2022-11-02T11:39:01.334Z,6.27
2022-11-02T11:41:30.790Z,14.50
2022-11-02T11:43:59.989Z,12.83
2022-11-02T11:46:43.744Z,19.40
2022-11-02T11:49:35.930Z,12.87
2022-11-02T11:52:18.810Z,11.60
2022-11-02T11:54:55.219Z,14.70
2022-11-02T11:58:05.358Z,12.43
2022-11-02T12:00:39.912Z,8.33
2022-11-02T12:03:14.301Z,11.20
2022-11-02T12:05:56.059Z,9.10
2022-11-02T12:08:44.503Z,9.27
2022-11-02T12:11:27.730Z,16.23
2022-11-02T12:14:14.226Z,21.00
2022-11-02T12:17:01.954Z,11.13
2022-11-02T12:19:40.191Z,14.93
2022-11-02T12:22:19.125Z,7.40
2022-11-02T12:25:17.440Z,9.20
2022-11-02T12:27:54.257Z,11.67
2022-11-02T12:30:26.100Z,11.77
2022-11-02T12:33:26.838Z,39.73
2022-11-02T12:36:18.592Z,13.27
2022-11-02T12:39:08.486Z,9.30
2022-11-02T12:41:47.558Z,8.13
2022-11-02T12:44:31.196Z,10.33
2022-11-02T12:47:11.126Z,11.10
2022-11-02T12:49:47.657Z,11.97
2022-11-02T12:52:31.450Z,8.27
2022-11-02T12:55:17.112Z,14.30
2022-11-02T12:57:46.614Z,9.57
2022-11-02T13:00:21.057Z,11.87
2022-11-02T13:02:58.914Z,10.03
2022-11-02T13:05:31.075Z,18.17
2022-11-02T13:08:08.487Z,8.30
2022-11-02T13:10:45.524Z,15.17
2022-11-02T13:13:19.108Z,9.17
2022-11-02T13:15:50.220Z,12.03
2022-11-02T13:18:23.692Z,10.70
2022-11-02T13:20:55.116Z,13.87
2022-11-02T13:23:51.902Z,12.20
2022-11-02T13:26:28.639Z,13.83
2022-11-02T13:29:00.861Z,11.47
2022-11-02T13:31:31.956Z,15.60
2022-11-02T13:34:03.787Z,11.27
2022-11-02T13:36:32.921Z,13.87
2022-11-02T13:39:07.048Z,15.73
2022-11-02T13:41:51.120Z,14.20
2022-11-02T13:44:31.973Z,10.83
2022-11-02T13:47:15.046Z,8.57
2022-11-02T13:49:45.992Z,15.43
2022-11-02T13:52:17.007Z,13.30
2022-11-02T13:54:50.887Z,16.77
2022-11-02T13:57:32.661Z,9.90
2022-11-02T14:00:02.294Z,14.47
2022-11-02T14:02:33.193Z,15.20
2022-11-02T14:05:02.712Z,11.70
2022-11-02T14:07:34.907Z,12.10
2022-11-02T14:10:09.748Z,13.70
2022-11-02T14:12:46.032Z,14.80
2022-11-02T14:15:42.426Z,14.57
2022-11-02T14:18:35.928Z,10.77
2022-11-02T14:21:40.980Z,14.40
2022-11-02T14:24:54.049Z,14.50
2022-11-02T14:27:46.470Z,15.17
2022-11-02T14:30:45.727Z,16.37
2022-11-02T14:33:53.032Z,11.70
2022-11-02T14:36:40.392Z,14.97
2022-11-02T14:39:20.954Z,11.13
2022-11-02T14:42:13.218Z,16.53
2022-11-02T14:45:13.210Z,13.97
2022-11-02T14:48:07.519Z,20.97
2022-11-02T14:50:35.907Z,46.20
2022-11-02T14:53:08.215Z,79.83
2022-11-02T14:55:38.508Z,74.63
2022-11-02T14:58:16.445Z,88.03
2022-11-02T15:01:00.535Z,33.30
2022-11-02T15:03:34.891Z,27.73
2022-11-02T15:06:06.269Z,27.63
2022-11-02T15:08:36.753Z,26.17
2022-11-02T15:11:42.188Z,28.47
2022-11-02T15:14:52.922Z,39.73
2022-11-02T15:17:54.624Z,32.60
2022-11-02T15:20:29.173Z,25.07
2022-11-02T15:23:09.147Z,16.43
2022-11-02T15:25:41.819Z,13.73
2022-11-02T15:28:15.508Z,20.63
2022-11-02T15:30:46.742Z,14.63
2022-11-02T15:33:35.981Z,13.73
2022-11-02T15:36:07.539Z,11.43
2022-11-02T15:38:40.503Z,10.83
2022-11-02T15:41:22.420Z,13.53
2022-11-02T15:44:11.947Z,13.40
2022-11-02T15:46:53.565Z,17.63
2022-11-02T15:49:38.809Z,19.10
2022-11-02T15:52:15.095Z,21.20
2022-11-02T15:54:58.516Z,19.53
2022-11-02T15:57:38.484Z,17.43
2022-11-02T16:00:18.408Z,16.20
2022-11-02T16:02:49.638Z,16.40
2022-11-02T16:05:23.555Z,16.67
2022-11-02T16:08:20.847Z,13.13
2022-11-02T16:10:43.203Z,13.97
2022-11-02T16:13:17.427Z,13.13
2022-11-02T16:15:46.382Z,13.80
2022-11-02T16:18:25.616Z,17.23
2022-11-02T16:20:59.618Z,13.80
2022-11-02T16:23:30.269Z,14.13
2022-11-02T16:26:00.707Z,12.50
2022-11-02T16:28:30.931Z,12.73
2022-11-02T16:31:00.656Z,18.67
2022-11-02T16:33:32.167Z,14.20
2022-11-02T16:36:02.843Z,18.77
2022-11-02T16:38:32.092Z,21.47
2022-11-02T16:41:02.562Z,16.37
2022-11-02T16:43:31.987Z,16.53
2022-11-02T16:46:04.286Z,10.67
2022-11-02T16:48:34.204Z,14.03
2022-11-02T16:51:18.547Z,15.80
2022-11-02T16:53:46.856Z,14.27
2022-11-02T16:56:27.640Z,15.50
2022-11-02T16:59:01.356Z,12.30
2022-11-02T17:01:35.330Z,13.07
2022-11-02T17:04:19.760Z,13.27
2022-11-02T17:06:51.689Z,9.87
2022-11-02T17:09:26.197Z,10.07
2022-11-02T17:11:57.121Z,10.07
2022-11-02T17:14:26.491Z,12.23
2022-11-02T17:17:06.748Z,11.67
2022-11-02T17:19:46.726Z,8.13
2022-11-02T17:22:24.166Z,9.60
2022-11-02T17:25:09.899Z,13.57
2022-11-02T17:27:42.114Z,19.50
2022-11-02T17:30:42.087Z,18.43
2022-11-02T17:33:33.414Z,19.10
2022-11-02T17:36:07.087Z,20.33
2022-11-02T17:38:37.151Z,18.67
2022-11-02T17:41:26.244Z,15.10
2022-11-02T17:43:53.537Z,10.43
2022-11-02T17:46:21.960Z,29.87
2022-11-02T17:48:50.233Z,19.60
2022-11-02T17:51:22.179Z,16.50
2022-11-02T17:53:52.271Z,15.20
2022-11-02T17:56:20.526Z,11.77
2022-11-02T17:58:48.803Z,13.87
2022-11-02T18:01:18.330Z,9.43
2022-11-02T18:03:46.636Z,14.70
2022-11-02T18:06:14.936Z,15.40
2022-11-02T18:09:00.467Z,14.60
2022-11-02T18:11:30.792Z,12.37
2022-11-02T18:13:59.349Z,13.73
2022-11-02T18:16:28.254Z,12.80
2022-11-02T18:18:56.531Z,14.13
2022-11-02T18:21:24.968Z,17.20
2022-11-02T18:23:53.268Z,12.37
2022-11-02T18:26:21.577Z,12.13
2022-11-02T18:28:51.179Z,12.87
2022-11-02T18:31:19.593Z,14.13
2022-11-02T18:33:48.054Z,14.00
2022-11-02T18:36:16.446Z,16.73
2022-11-02T18:38:44.628Z,8.07
2022-11-02T18:41:31.079Z,13.00
2022-11-02T18:44:06.631Z,14.97
2022-11-02T18:46:37.970Z,14.73
2022-11-02T18:49:06.301Z,12.47
2022-11-02T18:51:34.860Z,13.93
2022-11-02T18:54:05.027Z,13.50
2022-11-02T18:56:33.265Z,13.13
2022-11-02T18:59:03.571Z,12.03
2022-11-02T19:01:31.958Z,17.20
2022-11-02T19:04:01.537Z,13.97
2022-11-02T19:06:49.293Z,16.80
2022-11-02T19:09:21.453Z,13.93
2022-11-02T19:11:53.454Z,11.30
2022-11-02T19:14:24.769Z,10.27
2022-11-02T19:16:53.099Z,11.93
2022-11-02T19:19:21.675Z,9.97
2022-11-02T19:21:50.000Z,11.27
2022-11-02T19:24:18.427Z,12.73
2022-11-02T19:26:46.600Z,15.57
2022-11-02T19:29:15.182Z,11.13
2022-11-02T19:31:45.223Z,10.03
2022-11-02T19:34:39.317Z,8.70
2022-11-02T19:37:08.543Z,10.40
2022-11-02T19:39:36.957Z,9.10
2022-11-02T19:42:07.644Z,10.40
2022-11-02T19:44:42.239Z,11.53
2022-11-02T19:47:12.519Z,14.33
2022-11-02T19:49:40.815Z,11.60
2022-11-02T19:52:09.117Z,9.83
2022-11-02T19:54:37.579Z,11.57
2022-11-02T19:57:05.889Z,10.87
2022-11-02T19:59:34.585Z,12.87
2022-11-02T20:02:02.904Z,13.20
2022-11-02T20:04:38.050Z,11.00
2022-11-02T20:07:23.424Z,13.40
2022-11-02T20:09:53.453Z,12.20
2022-11-02T20:12:24.029Z,11.70
2022-11-02T20:14:52.296Z,10.67
2022-11-02T20:17:52.029Z,15.53
2022-11-02T20:20:10.916Z,9.63
2022-11-02T20:22:39.250Z,11.83
2022-11-02T20:25:08.870Z,8.47
2022-11-02T20:27:37.294Z,16.37
2022-11-02T20:30:05.965Z,9.13
2022-11-02T20:32:34.356Z,10.07
2022-11-02T20:35:02.602Z,11.07
2022-11-02T20:37:35.020Z,11.53
2022-11-02T20:40:03.242Z,12.77
2022-11-02T20:42:31.647Z,17.90
2022-11-02T20:45:00.001Z,11.63
2022-11-02T20:47:28.414Z,10.63
2022-11-02T20:49:56.627Z,15.53
2022-11-02T20:52:25.009Z,11.33
2022-11-02T20:54:54.740Z,10.63
2022-11-02T20:57:23.262Z,10.00
2022-11-02T20:59:51.591Z,9.73
2022-11-02T21:02:22.230Z,7.40
2022-11-02T21:04:50.944Z,8.67
2022-11-02T21:07:19.262Z,11.57
2022-11-02T21:09:47.444Z,8.53
2022-11-02T21:12:34.862Z,9.00
2022-11-02T21:15:03.479Z,10.30
2022-11-02T21:17:31.880Z,6.23
2022-11-02T21:20:14.105Z,9.20
2022-11-02T21:22:51.198Z,9.27
2022-11-02T21:25:19.626Z,8.07
2022-11-02T21:27:51.820Z,12.10
2022-11-02T21:30:20.798Z,9.17
2022-11-02T21:32:51.605Z,8.30
2022-11-02T21:35:19.963Z,8.40
2022-11-02T21:37:48.220Z,9.27
2022-11-02T21:40:16.649Z,10.03
2022-11-02T21:42:44.839Z,9.07
2022-11-02T21:45:17.979Z,10.43
2022-11-02T21:47:46.783Z,10.50
2022-11-02T21:50:15.000Z,10.87
2022-11-02T21:52:45.215Z,10.73
2022-11-02T21:55:13.863Z,7.60
2022-11-02T21:57:42.058Z,12.63
2022-11-02T22:00:11.735Z,11.27
2022-11-02T22:02:46.368Z,11.33
2022-11-02T22:05:34.760Z,9.73
2022-11-02T22:08:20.276Z,10.83
2022-11-02T22:10:48.852Z,9.20
2022-11-02T22:13:34.951Z,9.13
2022-11-02T22:16:11.167Z,6.37
2022-11-02T22:18:40.813Z,8.50
2022-11-02T22:21:09.058Z,9.27
2022-11-02T22:23:37.416Z,9.47
2022-11-02T22:26:07.681Z,11.37
2022-11-02T22:28:37.815Z,10.97
2022-11-02T22:31:07.622Z,10.13
2022-11-02T22:34:03.406Z,8.57
2022-11-02T22:36:33.391Z,11.53
2022-11-02T22:39:02.323Z,9.63
2022-11-02T22:41:32.651Z,10.30
2022-11-02T22:44:03.642Z,7.67
2022-11-02T22:46:34.641Z,9.27
2022-11-02T22:49:05.603Z,8.83
2022-11-02T22:51:35.970Z,10.30
2022-11-02T22:54:05.964Z,10.33
2022-11-02T22:56:35.198Z,7.87
2022-11-02T22:59:04.327Z,8.17
2022-11-02T23:01:34.069Z,9.33
2022-11-02T23:04:04.290Z,7.70
2022-11-02T23:06:33.096Z,9.63
2022-11-02T23:09:02.291Z,8.10
2022-11-02T23:11:32.337Z,9.10
2022-11-02T23:14:02.549Z,7.97
2022-11-02T23:16:36.290Z,9.67
2022-11-02T23:19:27.805Z,7.23
2022-11-02T23:22:16.200Z,8.90
2022-11-02T23:25:03.613Z,8.27
2022-11-02T23:27:32.980Z,9.60
2022-11-02T23:30:30.612Z,7.37
2022-11-02T23:32:58.881Z,10.07
2022-11-02T23:35:45.748Z,9.07
2022-11-02T23:38:13.986Z,8.70
2022-11-02T23:40:42.283Z,8.60
2022-11-02T23:43:35.316Z,9.20
2022-11-02T23:46:03.531Z,6.90
2022-11-02T23:48:31.821Z,8.60
2022-11-02T23:51:18.924Z,7.03
2022-11-02T23:54:04.322Z,6.90
2022-11-02T23:56:44.100Z,10.63
2022-11-02T23:59:12.627Z,9.30
